createdAt,value
2022-10-11T00:00:32.683Z,17.08
2022-10-11T00:01:07.400Z,24.05
2022-10-11T00:01:39.612Z,12.63
2022-10-11T00:02:11.781Z,28.10
2022-10-11T00:02:46.498Z,18.67
2022-10-11T00:03:18.710Z,14.95
2022-10-11T00:03:50.780Z,13.63
2022-10-11T00:04:28.063Z,29.40
2022-10-11T00:05:00.228Z,25.85
2022-10-11T00:05:32.523Z,17.80
2022-10-11T00:06:08.014Z,20.38
2022-10-11T00:06:43.383Z,15.90
2022-10-11T00:07:15.457Z,26.30
2022-10-11T00:07:50.095Z,15.73
2022-10-11T00:08:22.408Z,20.67
2022-10-11T00:08:54.483Z,21.77
2022-10-11T00:09:29.206Z,18.80
2022-10-11T00:10:01.338Z,20.30
2022-10-11T00:10:33.858Z,17.75
2022-10-11T00:11:10.063Z,20.88
2022-10-11T00:11:42.966Z,17.30
2022-10-11T00:12:15.047Z,19.05
2022-10-11T00:12:52.394Z,13.25
2022-10-11T00:13:24.479Z,9.98
2022-10-11T00:13:56.606Z,20.33
2022-10-11T00:14:28.797Z,23.63
2022-10-11T00:15:03.537Z,11.48
2022-10-11T00:15:35.731Z,9.43
2022-10-11T00:16:09.876Z,9.70
2022-10-11T00:16:45.288Z,18.48
2022-10-11T00:17:17.403Z,14.98
2022-10-11T00:17:49.824Z,8.85
2022-10-11T00:18:25.002Z,16.15
2022-10-11T00:18:57.112Z,21.60
2022-10-11T00:19:32.338Z,12.75
2022-10-11T00:20:07.862Z,16.90
2022-10-11T00:20:39.991Z,21.85
2022-10-11T00:21:14.642Z,17.38
2022-10-11T00:21:50.005Z,24.33
2022-10-11T00:22:22.187Z,17.40
2022-10-11T00:22:54.241Z,17.02
2022-10-11T00:23:28.935Z,23.42
2022-10-11T00:24:01.019Z,22.42
2022-10-11T00:24:35.735Z,14.98
2022-10-11T00:25:10.175Z,10.65
2022-10-11T00:25:42.367Z,12.27
2022-10-11T00:26:17.843Z,19.20
2022-10-11T00:26:49.947Z,15.23
2022-10-11T00:27:22.055Z,21.95
2022-10-11T00:27:57.331Z,15.32
2022-10-11T00:28:29.920Z,15.38
2022-10-11T00:29:02.085Z,18.83
2022-10-11T00:29:36.750Z,14.95
2022-10-11T00:30:10.126Z,18.98
2022-10-11T00:30:43.439Z,13.50
2022-10-11T00:31:18.583Z,9.13
2022-10-11T00:31:50.724Z,13.05
2022-10-11T00:32:22.873Z,23.30
2022-10-11T00:32:57.518Z,14.63
2022-10-11T00:33:29.593Z,19.75
2022-10-11T00:34:01.935Z,16.20
2022-10-11T00:34:36.618Z,19.35
2022-10-11T00:35:12.374Z,11.65
2022-10-11T00:35:44.717Z,22.48
2022-10-11T00:36:17.619Z,28.08
2022-10-11T00:36:52.266Z,12.82
2022-10-11T00:37:24.346Z,23.95
2022-10-11T00:37:57.182Z,14.05
2022-10-11T00:38:31.672Z,23.42
2022-10-11T00:39:06.914Z,20.13
2022-10-11T00:39:39.126Z,11.30
2022-10-11T00:40:17.628Z,10.75
2022-10-11T00:40:52.331Z,11.52
2022-10-11T00:41:24.389Z,13.98
2022-10-11T00:41:56.793Z,17.95
2022-10-11T00:42:31.451Z,32.58
2022-10-11T00:43:03.892Z,10.32
2022-10-11T00:43:36.869Z,23.67
2022-10-11T00:44:17.068Z,10.10
2022-10-11T00:44:51.017Z,18.17
2022-10-11T00:45:58.839Z,8.80
2022-10-11T00:46:35.272Z,21.50
2022-10-11T00:47:10.797Z,11.25
2022-10-11T00:47:42.898Z,20.10
2022-10-11T00:48:19.015Z,13.45
2022-10-11T00:48:58.704Z,12.90
2022-10-11T00:49:37.211Z,15.57
2022-10-11T00:50:11.130Z,15.07
2022-10-11T00:50:46.033Z,12.68
2022-10-11T00:51:21.385Z,14.15
2022-10-11T00:51:57.498Z,11.55
2022-10-11T00:52:35.684Z,15.70
2022-10-11T00:53:11.468Z,14.60
2022-10-11T00:53:44.253Z,17.50
2022-10-11T00:54:21.803Z,16.52
2022-10-11T00:54:54.026Z,20.65
2022-10-11T00:55:29.601Z,15.27
2022-10-11T00:56:09.684Z,14.10
2022-10-11T00:56:44.178Z,36.83
2022-10-11T00:57:20.293Z,21.48
2022-10-11T00:57:56.357Z,17.20
2022-10-11T00:58:28.766Z,14.98
2022-10-11T00:59:04.424Z,15.00
2022-10-11T00:59:42.708Z,17.80
2022-10-11T01:00:16.459Z,23.13
2022-10-11T01:00:48.690Z,15.50
2022-10-11T01:01:23.580Z,14.75
2022-10-11T01:01:56.034Z,14.35
2022-10-11T01:02:30.938Z,18.65
2022-10-11T01:03:04.948Z,20.00
2022-10-11T01:03:38.943Z,24.83
2022-10-11T01:04:13.696Z,19.50
2022-10-11T01:04:57.322Z,18.38
2022-10-11T01:05:40.064Z,11.50
2022-10-11T01:06:14.738Z,12.80
2022-10-11T01:06:47.807Z,20.50
2022-10-11T01:07:23.939Z,20.98
2022-10-11T01:07:56.336Z,14.93
2022-10-11T01:08:28.601Z,9.35
2022-10-11T01:09:03.281Z,15.20
2022-10-11T01:09:35.540Z,25.35
2022-10-11T01:10:08.441Z,15.52
2022-10-11T01:10:40.590Z,20.58
2022-10-11T01:11:17.584Z,15.00
2022-10-11T01:11:53.046Z,15.50
2022-10-11T01:12:32.033Z,16.13
2022-10-11T01:13:12.665Z,16.15
2022-10-11T01:13:54.866Z,21.75
2022-10-11T01:14:45.717Z,12.00
2022-10-11T01:15:25.786Z,11.38
2022-10-11T01:16:05.971Z,14.32
2022-10-11T01:17:25.427Z,17.98
2022-10-11T01:18:04.314Z,14.30
2022-10-11T01:18:51.793Z,19.40
2022-10-11T01:19:44.714Z,9.70
2022-10-11T01:20:45.854Z,16.20
2022-10-11T01:21:31.471Z,13.75
2022-10-11T01:22:21.689Z,12.27
2022-10-11T01:23:24.324Z,22.73
2022-10-11T01:24:32.986Z,20.83
2022-10-11T01:25:19.619Z,15.35
2022-10-11T01:26:18.624Z,17.40
2022-10-11T01:27:18.886Z,16.63
2022-10-11T01:28:20.879Z,16.63
2022-10-11T01:29:04.014Z,14.88
2022-10-11T01:29:49.578Z,19.73
2022-10-11T01:30:28.681Z,14.23
2022-10-11T01:31:07.134Z,8.05
2022-10-11T01:31:46.795Z,15.18
2022-10-11T01:32:25.946Z,14.65
2022-10-11T01:33:13.307Z,9.60
2022-10-11T01:33:54.721Z,16.98
2022-10-11T01:34:34.708Z,15.65
2022-10-11T01:35:10.807Z,18.35
2022-10-11T01:35:52.403Z,26.38
2022-10-11T01:36:32.075Z,17.67
2022-10-11T01:37:13.885Z,18.02
2022-10-11T01:37:51.710Z,20.67
2022-10-11T01:38:28.098Z,15.65
2022-10-11T01:39:07.799Z,19.77
2022-10-11T01:39:46.549Z,23.90
2022-10-11T01:40:25.020Z,16.88
2022-10-11T01:41:03.077Z,19.95
2022-10-11T01:41:38.744Z,16.67
2022-10-11T01:42:13.364Z,13.93
2022-10-11T01:42:48.633Z,16.70
2022-10-11T01:43:22.965Z,22.45
2022-10-11T01:43:59.121Z,20.15
2022-10-11T01:44:34.931Z,22.42
2022-10-11T01:45:13.249Z,17.15
2022-10-11T01:45:52.647Z,21.70
2022-10-11T01:46:25.250Z,22.83
2022-10-11T01:46:57.408Z,11.07
2022-10-11T01:47:32.070Z,14.57
2022-10-11T01:48:06.712Z,14.40
2022-10-11T01:48:48.374Z,18.73
2022-10-11T01:49:23.602Z,12.50
2022-10-11T01:49:57.407Z,17.02
2022-10-11T01:50:41.729Z,11.82
2022-10-11T01:51:16.922Z,16.27
2022-10-11T01:51:53.156Z,9.50
2022-10-11T01:52:27.314Z,18.60
2022-10-11T01:53:10.484Z,7.47
2022-10-11T01:54:05.281Z,15.82
2022-10-11T01:55:50.822Z,18.00
2022-10-11T01:56:36.786Z,11.40
2022-10-11T01:57:44.034Z,23.25
2022-10-11T01:58:29.832Z,19.25
2022-10-11T01:59:15.934Z,24.55
2022-10-11T02:00:03.511Z,13.35
2022-10-11T02:00:51.858Z,13.93
2022-10-11T02:01:31.059Z,25.00
2022-10-11T02:02:18.575Z,17.80
2022-10-11T02:03:05.409Z,18.05
2022-10-11T02:03:48.423Z,18.35
2022-10-11T02:04:30.026Z,20.70
2022-10-11T02:05:12.263Z,13.30
2022-10-11T02:05:49.980Z,15.65
2022-10-11T02:06:32.509Z,10.95
2022-10-11T02:07:14.118Z,29.95
2022-10-11T02:07:53.149Z,18.65
2022-10-11T02:08:32.122Z,18.30
2022-10-11T02:09:15.210Z,23.52
2022-10-11T02:09:52.931Z,21.52
2022-10-11T02:10:33.433Z,17.95
2022-10-11T02:11:10.127Z,22.90
2022-10-11T02:11:42.920Z,15.90
2022-10-11T02:12:26.292Z,17.20
2022-10-11T02:13:04.306Z,11.68
2022-10-11T02:13:44.053Z,20.15
2022-10-11T02:14:20.760Z,20.98
2022-10-11T02:14:54.339Z,18.05
2022-10-11T02:15:32.402Z,36.42
2022-10-11T02:16:12.827Z,13.50
2022-10-11T02:17:26.055Z,16.45
2022-10-11T02:18:02.504Z,10.30
2022-10-11T02:18:40.098Z,16.15
2022-10-11T02:19:19.795Z,14.27
2022-10-11T02:19:54.709Z,43.08
2022-10-11T02:20:30.690Z,27.88
2022-10-11T02:21:08.783Z,12.45
2022-10-11T02:21:44.656Z,16.45
2022-10-11T02:22:23.030Z,65.78
2022-10-11T02:23:02.561Z,15.00
2022-10-11T02:23:40.934Z,67.20
2022-10-11T02:24:17.437Z,48.38
2022-10-11T02:24:56.501Z,20.55
2022-10-11T02:25:33.390Z,14.90
2022-10-11T02:26:09.865Z,22.50
2022-10-11T02:26:47.481Z,18.30
2022-10-11T02:27:23.395Z,14.23
2022-10-11T02:28:02.371Z,19.27
2022-10-11T02:28:37.472Z,28.17
2022-10-11T02:29:15.206Z,22.80
2022-10-11T02:29:52.738Z,23.08
2022-10-11T02:30:25.085Z,23.50
2022-10-11T02:31:00.475Z,8.18
2022-10-11T02:31:39.220Z,19.27
2022-10-11T02:32:12.706Z,18.08
2022-10-11T02:32:47.797Z,15.68
2022-10-11T02:33:29.517Z,21.75
2022-10-11T02:34:09.949Z,18.25
2022-10-11T02:35:20.606Z,15.63
2022-10-11T02:35:59.184Z,18.27
2022-10-11T02:36:41.956Z,15.35
2022-10-11T02:37:22.106Z,15.10
2022-10-11T02:37:59.262Z,15.85
2022-10-11T02:38:37.679Z,15.55
2022-10-11T02:39:18.121Z,20.55
2022-10-11T02:40:31.378Z,27.92
2022-10-11T02:41:12.306Z,24.13
2022-10-11T02:41:46.815Z,15.27
2022-10-11T02:42:23.968Z,23.63
2022-10-11T02:43:03.787Z,26.98
2022-10-11T02:43:41.670Z,16.17
2022-10-11T02:44:20.149Z,17.88
2022-10-11T02:45:01.270Z,20.90
2022-10-11T02:45:37.980Z,19.17
2022-10-11T02:46:11.367Z,15.98
2022-10-11T02:46:50.239Z,28.38
2022-10-11T02:47:22.558Z,18.08
2022-10-11T02:47:55.263Z,19.98
2022-10-11T02:48:31.119Z,19.98
2022-10-11T02:49:04.138Z,19.15
2022-10-11T02:49:37.029Z,23.10
2022-10-11T02:50:13.523Z,9.90
2022-10-11T02:50:45.871Z,21.48
2022-10-11T02:51:18.747Z,13.23
2022-10-11T02:51:53.414Z,12.10
2022-10-11T02:52:25.791Z,12.15
2022-10-11T02:52:57.871Z,17.00
2022-10-11T02:53:32.910Z,17.23
2022-10-11T02:54:05.453Z,14.88
2022-10-11T02:54:37.581Z,12.50
2022-10-11T02:55:14.264Z,24.88
2022-10-11T02:55:47.892Z,20.00
2022-10-11T02:56:19.995Z,15.88
2022-10-11T02:56:54.962Z,18.45
2022-10-11T02:57:27.122Z,25.45
2022-10-11T02:58:00.302Z,15.63
2022-10-11T02:58:34.953Z,16.92
2022-10-11T02:59:07.036Z,21.27
2022-10-11T02:59:39.118Z,25.52
2022-10-11T03:00:15.581Z,24.65
2022-10-11T03:00:48.050Z,17.10
2022-10-11T03:01:20.265Z,31.40
2022-10-11T03:01:57.733Z,19.05
2022-10-11T03:02:29.850Z,25.08
2022-10-11T03:03:01.936Z,17.42
2022-10-11T03:03:36.578Z,21.85
2022-10-11T03:04:08.686Z,22.38
2022-10-11T03:04:40.766Z,11.95
2022-10-11T03:05:15.414Z,13.52
2022-10-11T03:05:47.551Z,11.55
2022-10-11T03:06:19.679Z,13.70
2022-10-11T03:06:54.339Z,17.38
2022-10-11T03:07:26.610Z,31.48
2022-10-11T03:07:58.700Z,9.27
2022-10-11T03:08:33.455Z,16.15
2022-10-11T03:09:05.643Z,23.83
2022-10-11T03:09:37.714Z,32.83
2022-10-11T03:10:13.165Z,14.40
2022-10-11T03:10:45.336Z,18.90
2022-10-11T03:11:17.443Z,18.98
2022-10-11T03:11:49.638Z,11.30
2022-10-11T03:12:24.540Z,31.05
2022-10-11T03:12:56.785Z,26.08
2022-10-11T03:13:28.946Z,13.95
2022-10-11T03:14:03.635Z,23.05
2022-10-11T03:14:35.700Z,22.35
2022-10-11T03:15:08.503Z,27.15
2022-10-11T03:15:43.143Z,19.48
2022-10-11T03:16:15.417Z,27.00
2022-10-11T03:16:47.668Z,13.00
2022-10-11T03:17:35.985Z,16.80
2022-10-11T03:18:08.994Z,20.55
2022-10-11T03:18:41.075Z,18.27
2022-10-11T03:19:19.179Z,32.13
2022-10-11T03:19:51.620Z,34.60
2022-10-11T03:20:24.408Z,34.97
2022-10-11T03:20:56.516Z,22.92
2022-10-11T03:21:31.225Z,13.18
2022-10-11T03:22:03.339Z,16.13
2022-10-11T03:22:35.626Z,22.38
2022-10-11T03:23:10.333Z,31.98
2022-10-11T03:23:42.708Z,21.63
2022-10-11T03:24:14.812Z,14.18
2022-10-11T03:24:46.916Z,41.70
2022-10-11T03:25:21.590Z,42.00
2022-10-11T03:25:53.729Z,29.23
2022-10-11T03:26:25.851Z,25.40
2022-10-11T03:26:57.946Z,17.55
2022-10-11T03:27:32.615Z,35.30
2022-10-11T03:28:05.355Z,34.03
2022-10-11T03:28:37.486Z,27.80
2022-10-11T03:29:12.208Z,27.67
2022-10-11T03:29:44.295Z,25.63
2022-10-11T03:30:18.285Z,26.02
2022-10-11T03:30:54.644Z,20.63
2022-10-11T03:31:26.959Z,31.10
2022-10-11T03:31:59.370Z,38.13
2022-10-11T03:32:34.039Z,34.85
2022-10-11T03:33:08.730Z,22.02
2022-10-11T03:33:40.863Z,25.63
2022-10-11T03:34:13.063Z,25.02
2022-10-11T03:34:47.731Z,36.13
2022-10-11T03:35:19.934Z,19.25
2022-10-11T03:35:52.041Z,21.98
2022-10-11T03:36:26.702Z,28.80
2022-10-11T03:36:58.844Z,17.90
2022-10-11T03:37:30.947Z,26.95
2022-10-11T03:38:06.000Z,20.48
2022-10-11T03:38:39.106Z,37.30
2022-10-11T03:39:11.254Z,28.88
2022-10-11T03:39:45.981Z,46.80
2022-10-11T03:40:18.203Z,18.63
2022-10-11T03:40:50.310Z,26.73
2022-10-11T03:41:25.094Z,18.80
2022-10-11T03:41:57.235Z,17.00
2022-10-11T03:42:29.818Z,15.27
2022-10-11T03:43:02.065Z,25.60
2022-10-11T03:43:37.378Z,28.88
2022-10-11T03:44:09.460Z,62.13
2022-10-11T03:44:42.290Z,14.60
2022-10-11T03:45:17.029Z,30.20
2022-10-11T03:45:49.109Z,29.90
2022-10-11T03:46:21.402Z,21.25
2022-10-11T03:46:56.166Z,37.28
2022-10-11T03:47:28.251Z,14.98
2022-10-11T03:48:03.178Z,17.95
2022-10-11T03:48:37.882Z,22.67
2022-10-11T03:49:09.979Z,24.80
2022-10-11T03:49:43.778Z,24.80
2022-10-11T03:50:18.683Z,29.58
2022-10-11T03:50:50.794Z,24.42
2022-10-11T03:51:22.899Z,25.15
2022-10-11T03:51:57.596Z,50.53
2022-10-11T03:52:29.758Z,25.17
2022-10-11T03:53:01.889Z,43.08
2022-10-11T03:53:36.671Z,15.13
2022-10-11T03:54:08.743Z,22.95
2022-10-11T03:54:40.819Z,33.00
2022-10-11T03:55:15.548Z,32.75
2022-10-11T03:55:53.183Z,15.38
2022-10-11T03:56:25.249Z,20.40
2022-10-11T03:56:59.958Z,19.77
2022-10-11T03:57:32.115Z,20.55
2022-10-11T03:58:04.187Z,26.73
2022-10-11T03:58:38.886Z,19.45
2022-10-11T03:59:10.958Z,44.88
2022-10-11T03:59:43.087Z,26.40
2022-10-11T04:00:18.153Z,32.85
2022-10-11T04:00:50.652Z,29.15
2022-10-11T04:01:25.398Z,35.40
2022-10-11T04:01:57.527Z,16.10
2022-10-11T04:02:29.693Z,25.27
2022-10-11T04:03:07.085Z,24.55
2022-10-11T04:03:39.194Z,27.58
2022-10-11T04:04:11.261Z,30.70
2022-10-11T04:04:46.195Z,21.42
2022-10-11T04:05:18.566Z,50.47
2022-10-11T04:05:50.649Z,33.13
2022-10-11T04:06:25.446Z,40.00
2022-10-11T04:06:57.559Z,24.27
2022-10-11T04:07:29.761Z,21.08
2022-10-11T04:08:07.374Z,35.25
2022-10-11T04:08:43.262Z,31.50
2022-10-11T04:09:15.505Z,43.95
2022-10-11T04:09:50.211Z,48.72
2022-10-11T04:10:22.647Z,60.58
2022-10-11T04:10:54.770Z,18.73
2022-10-11T04:11:29.738Z,22.60
2022-10-11T04:12:02.023Z,21.73
2022-10-11T04:12:34.838Z,28.35
2022-10-11T04:13:09.630Z,29.33
2022-10-11T04:13:41.888Z,28.88
2022-10-11T04:14:13.970Z,28.95
2022-10-11T04:14:48.676Z,32.75
2022-10-11T04:15:20.815Z,46.83
2022-10-11T04:15:52.944Z,40.95
2022-10-11T04:16:27.689Z,32.47
2022-10-11T04:17:00.575Z,47.63
2022-10-11T04:17:32.838Z,59.22
2022-10-11T04:18:11.126Z,34.72
2022-10-11T04:18:43.194Z,31.23
2022-10-11T04:19:15.307Z,37.13
2022-10-11T04:19:49.971Z,32.03
2022-10-11T04:20:22.100Z,54.15
2022-10-11T04:20:54.246Z,23.02
2022-10-11T04:21:28.955Z,37.78
2022-10-11T04:22:01.042Z,34.10
2022-10-11T04:22:33.586Z,81.97
2022-10-11T04:23:08.320Z,75.70
2022-10-11T04:23:40.384Z,84.68
2022-10-11T04:24:12.873Z,102.55
2022-10-11T04:24:47.522Z,162.88
2022-10-11T04:25:19.638Z,78.07
2022-10-11T04:25:51.810Z,80.32
2022-10-11T04:26:27.659Z,88.78
2022-10-11T04:27:00.119Z,62.42
2022-10-11T04:27:32.344Z,43.47
2022-10-11T04:28:08.141Z,44.95
2022-10-11T04:28:40.324Z,38.63
2022-10-11T04:29:12.479Z,39.00
2022-10-11T04:29:47.152Z,33.40
2022-10-11T04:30:19.502Z,50.80
2022-10-11T04:30:51.614Z,38.40
2022-10-11T04:31:26.511Z,40.72
2022-10-11T04:31:58.644Z,31.10
2022-10-11T04:32:30.782Z,36.65
2022-10-11T04:33:05.416Z,30.30
2022-10-11T04:33:40.078Z,26.30
2022-10-11T04:34:12.270Z,36.90
2022-10-11T04:34:47.097Z,33.00
2022-10-11T04:35:19.231Z,36.25
2022-10-11T04:35:54.374Z,26.23
2022-10-11T04:36:29.066Z,41.03
2022-10-11T04:37:01.219Z,46.55
2022-10-11T04:37:33.449Z,39.22
2022-10-11T04:38:08.167Z,41.95
2022-10-11T04:38:40.244Z,51.15
2022-10-11T04:39:13.085Z,33.00
2022-10-11T04:39:47.749Z,41.20
2022-10-11T04:40:19.868Z,47.65
2022-10-11T04:40:51.980Z,19.98
2022-10-11T04:41:26.640Z,38.92
2022-10-11T04:41:58.805Z,30.92
2022-10-11T04:42:30.905Z,51.47
2022-10-11T04:43:05.558Z,27.77
2022-10-11T04:43:38.194Z,13.70
2022-10-11T04:44:10.270Z,27.00
2022-10-11T04:44:44.913Z,39.58
2022-10-11T04:45:17.447Z,24.75
2022-10-11T04:45:52.318Z,22.80
2022-10-11T04:46:30.308Z,27.58
2022-10-11T04:47:02.398Z,35.42
2022-10-11T04:47:34.522Z,30.73
2022-10-11T04:48:09.626Z,55.70
2022-10-11T04:48:44.742Z,62.63
2022-10-11T04:49:16.849Z,36.00
2022-10-11T04:49:51.501Z,46.28
2022-10-11T04:50:23.606Z,59.80
2022-10-11T04:50:55.815Z,25.17
2022-10-11T04:51:31.193Z,38.05
2022-10-11T04:52:03.356Z,48.42
2022-10-11T04:52:35.506Z,60.38
2022-10-11T04:53:10.981Z,50.53
2022-10-11T04:53:43.270Z,62.95
2022-10-11T04:54:15.794Z,62.15
2022-10-11T04:54:50.527Z,66.13
2022-10-11T04:55:22.590Z,46.20
2022-10-11T04:56:01.080Z,52.45
2022-10-11T04:56:36.105Z,57.30
2022-10-11T04:57:08.218Z,43.78
2022-10-11T04:57:42.960Z,72.88
2022-10-11T04:58:15.022Z,32.33
2022-10-11T04:58:48.310Z,63.88
2022-10-11T04:59:23.051Z,45.50
2022-10-11T04:59:55.114Z,25.92
2022-10-11T05:00:29.763Z,59.47
2022-10-11T05:01:01.893Z,47.65
2022-10-11T05:01:34.059Z,58.05
2022-10-11T05:02:08.782Z,48.08
2022-10-11T05:02:40.963Z,33.25
2022-10-11T05:03:13.060Z,42.83
2022-10-11T05:03:50.584Z,46.65
2022-10-11T05:04:22.774Z,45.55
2022-10-11T05:04:55.032Z,35.42
2022-10-11T05:05:29.829Z,53.40
2022-10-11T05:06:05.600Z,69.22
2022-10-11T05:06:38.175Z,134.70
2022-10-11T05:07:12.846Z,59.25
2022-10-11T05:07:44.906Z,61.10
2022-10-11T05:08:17.034Z,61.13
2022-10-11T05:08:51.663Z,45.95
2022-10-11T05:09:24.154Z,25.02
2022-10-11T05:09:56.319Z,59.67
2022-10-11T05:10:31.017Z,33.65
2022-10-11T05:11:05.830Z,81.60
2022-10-11T05:11:40.475Z,64.82
2022-10-11T05:12:12.610Z,35.40
2022-10-11T05:12:44.728Z,84.28
2022-10-11T05:13:19.374Z,85.95
2022-10-11T05:13:51.480Z,57.78
2022-10-11T05:14:26.217Z,33.25
2022-10-11T05:14:59.654Z,54.50
2022-10-11T05:15:31.751Z,43.83
2022-10-11T05:16:10.804Z,40.80
2022-10-11T05:16:43.738Z,33.35
2022-10-11T05:17:15.818Z,46.92
2022-10-11T05:17:50.507Z,54.38
2022-10-11T05:18:23.099Z,59.60
2022-10-11T05:18:57.959Z,91.03
2022-10-11T05:19:32.738Z,56.15
2022-10-11T05:20:05.974Z,46.13
2022-10-11T05:20:38.059Z,39.03
2022-10-11T05:21:21.145Z,35.63
2022-10-11T05:21:55.118Z,37.42
2022-10-11T05:22:27.191Z,50.83
2022-10-11T05:23:01.838Z,36.03
2022-10-11T05:23:35.975Z,35.83
2022-10-11T05:24:08.357Z,40.38
2022-10-11T05:24:43.040Z,96.47
2022-10-11T05:25:15.291Z,104.88
2022-10-11T05:25:47.457Z,49.88
2022-10-11T05:26:23.060Z,56.75
2022-10-11T05:26:56.330Z,81.60
2022-10-11T05:27:30.768Z,36.72
2022-10-11T05:28:05.497Z,29.50
2022-10-11T05:28:37.951Z,52.90
2022-10-11T05:29:10.053Z,39.00
2022-10-11T05:29:45.867Z,39.20
2022-10-11T05:30:18.096Z,25.67
2022-10-11T05:30:50.231Z,40.80
2022-10-11T05:31:24.969Z,29.08
2022-10-11T05:31:57.170Z,45.63
2022-10-11T05:32:29.363Z,39.13
2022-10-11T05:33:04.147Z,39.65
2022-10-11T05:33:36.432Z,35.28
2022-10-11T05:34:13.689Z,28.85
2022-10-11T05:34:45.918Z,57.00
2022-10-11T05:35:18.219Z,42.08
2022-10-11T05:35:53.042Z,35.88
2022-10-11T05:36:25.122Z,45.80
2022-10-11T05:36:57.545Z,65.22
2022-10-11T05:37:32.597Z,52.13
2022-10-11T05:38:04.762Z,46.85
2022-10-11T05:38:37.489Z,43.08
2022-10-11T05:39:12.171Z,53.50
2022-10-11T05:39:44.257Z,51.40
2022-10-11T05:40:16.467Z,62.22
2022-10-11T05:40:52.226Z,70.50
2022-10-11T05:41:24.314Z,75.03
2022-10-11T05:41:57.002Z,44.67
2022-10-11T05:42:31.677Z,34.80
2022-10-11T05:43:04.141Z,56.58
2022-10-11T05:43:36.238Z,58.17
2022-10-11T05:44:11.257Z,44.00
2022-10-11T05:44:43.337Z,76.25
2022-10-11T05:45:15.579Z,74.45
2022-10-11T05:45:50.299Z,98.68
2022-10-11T05:46:22.486Z,89.47
2022-10-11T05:46:54.583Z,93.78
2022-10-11T05:47:29.307Z,79.03
2022-10-11T05:48:01.381Z,89.88
2022-10-11T05:48:33.750Z,57.20
2022-10-11T05:49:08.450Z,57.65
2022-10-11T05:49:43.206Z,95.80
2022-10-11T05:50:15.569Z,82.35
2022-10-11T05:50:50.341Z,71.90
2022-10-11T05:51:22.546Z,48.83
2022-10-11T05:51:54.759Z,65.15
2022-10-11T05:52:29.643Z,59.15
2022-10-11T05:53:02.106Z,76.03
2022-10-11T05:53:34.271Z,97.60
2022-10-11T05:54:09.019Z,63.80
2022-10-11T05:54:41.140Z,45.10
2022-10-11T05:55:13.524Z,74.10
2022-10-11T05:55:48.466Z,95.07
2022-10-11T05:56:22.631Z,95.55
2022-10-11T05:56:54.701Z,96.05
2022-10-11T05:57:29.501Z,151.25
2022-10-11T05:58:01.610Z,81.70
2022-10-11T05:58:35.647Z,149.07
2022-10-11T05:59:10.321Z,117.68
2022-10-11T05:59:42.688Z,130.68
2022-10-11T06:00:15.683Z,78.13
2022-10-11T06:00:50.505Z,69.80
2022-10-11T06:01:24.432Z,66.20
2022-10-11T06:01:56.658Z,45.60
2022-10-11T06:02:31.381Z,59.78
2022-10-11T06:03:03.788Z,36.22
2022-10-11T06:03:35.865Z,53.55
2022-10-11T06:04:11.873Z,45.67
2022-10-11T06:04:46.738Z,67.25
2022-10-11T06:05:18.951Z,61.92
2022-10-11T06:05:57.024Z,79.30
2022-10-11T06:06:29.521Z,53.95
2022-10-11T06:07:01.747Z,67.70
2022-10-11T06:07:38.794Z,23.20
2022-10-11T06:08:11.277Z,42.58
2022-10-11T06:08:43.766Z,48.40
2022-10-11T06:09:18.460Z,38.97
2022-10-11T06:09:51.706Z,53.35
2022-10-11T06:10:23.979Z,39.90
2022-10-11T06:10:58.638Z,109.85
2022-10-11T06:11:30.740Z,46.50
2022-10-11T06:12:03.588Z,65.03
2022-10-11T06:12:38.871Z,58.58
2022-10-11T06:13:11.067Z,73.32
2022-10-11T06:13:44.575Z,49.65
2022-10-11T06:14:19.272Z,59.55
2022-10-11T06:14:51.357Z,58.83
2022-10-11T06:15:23.568Z,38.13
2022-10-11T06:15:58.465Z,37.47
2022-10-11T06:16:30.556Z,63.53
2022-10-11T06:17:05.212Z,79.88
2022-10-11T06:17:37.397Z,50.50
2022-10-11T06:18:09.474Z,121.55
2022-10-11T06:18:44.354Z,69.40
2022-10-11T06:19:16.482Z,44.20
2022-10-11T06:19:51.688Z,25.52
2022-10-11T06:20:26.489Z,49.75
2022-10-11T06:20:58.759Z,82.78
2022-10-11T06:21:31.339Z,62.13
2022-10-11T06:22:06.234Z,66.40
2022-10-11T06:22:39.187Z,24.80
2022-10-11T06:23:11.281Z,49.65
2022-10-11T06:23:46.030Z,69.97
2022-10-11T06:24:18.159Z,43.30
2022-10-11T06:24:50.290Z,52.00
2022-10-11T06:25:24.947Z,38.38
2022-10-11T06:25:58.220Z,63.28
2022-10-11T06:26:30.804Z,43.67
2022-10-11T06:27:05.510Z,88.82
2022-10-11T06:27:37.637Z,57.03
2022-10-11T06:28:09.776Z,65.15
2022-10-11T06:28:44.571Z,28.38
2022-10-11T06:29:16.686Z,36.33
2022-10-11T06:29:49.213Z,30.95
2022-10-11T06:30:24.382Z,75.60
2022-10-11T06:30:56.849Z,55.00
2022-10-11T06:31:31.571Z,60.67
2022-10-11T06:32:03.915Z,62.35
2022-10-11T06:32:36.081Z,52.63
2022-10-11T06:33:10.834Z,41.95
2022-10-11T06:33:42.991Z,38.60
2022-10-11T06:34:18.215Z,51.15
2022-10-11T06:34:52.943Z,48.83
2022-10-11T06:35:25.196Z,57.83
2022-10-11T06:36:01.063Z,80.47
2022-10-11T06:36:33.230Z,60.45
2022-10-11T06:37:05.310Z,37.17
2022-10-11T06:37:39.985Z,70.32
2022-10-11T06:38:12.208Z,72.15
2022-10-11T06:38:45.557Z,97.45
2022-10-11T06:39:20.311Z,68.20
2022-10-11T06:39:52.370Z,49.28
2022-10-11T06:40:24.758Z,58.00
2022-10-11T06:40:59.399Z,75.00
2022-10-11T06:41:31.500Z,69.15
2022-10-11T06:42:03.840Z,59.90
2022-10-11T06:42:38.574Z,68.68
2022-10-11T06:43:10.664Z,75.55
2022-10-11T06:43:42.836Z,90.82
2022-10-11T06:44:17.898Z,113.47
2022-10-11T06:44:49.975Z,96.25
2022-10-11T06:45:22.098Z,63.40
2022-10-11T06:46:02.029Z,104.13
2022-10-11T06:46:34.254Z,116.88
2022-10-11T06:47:07.171Z,88.30
2022-10-11T06:47:41.890Z,52.35
2022-10-11T06:48:14.417Z,90.97
2022-10-11T06:48:47.754Z,67.63
2022-10-11T06:49:23.602Z,83.22
2022-10-11T06:49:58.405Z,51.90
2022-10-11T06:50:54.765Z,81.30
2022-10-11T06:51:27.307Z,108.20
2022-10-11T06:51:59.506Z,84.22
2022-10-11T06:52:34.146Z,91.75
2022-10-11T06:53:07.197Z,64.30
2022-10-11T06:53:40.298Z,72.70
2022-10-11T06:54:17.354Z,79.43
2022-10-11T06:54:49.444Z,96.78
2022-10-11T06:55:21.517Z,72.50
2022-10-11T06:55:56.158Z,79.63
2022-10-11T06:56:30.555Z,70.57
2022-10-11T06:57:05.247Z,80.35
2022-10-11T06:57:37.433Z,58.33
2022-10-11T06:58:12.638Z,74.03
2022-10-11T06:58:44.795Z,65.07
2022-10-11T06:59:16.966Z,52.25
2022-10-11T06:59:51.619Z,62.55
2022-10-11T07:00:23.727Z,62.80
2022-10-11T07:00:59.776Z,57.53
2022-10-11T07:01:34.595Z,55.00
2022-10-11T07:02:06.935Z,70.38
2022-10-11T07:02:39.025Z,44.65
2022-10-11T07:03:13.859Z,45.42
2022-10-11T07:03:46.111Z,88.22
2022-10-11T07:04:20.906Z,38.47
2022-10-11T07:04:53.090Z,49.20
2022-10-11T07:05:32.150Z,67.25
2022-10-11T07:06:06.801Z,53.22
2022-10-11T07:06:40.970Z,47.90
2022-10-11T07:07:16.350Z,71.10
2022-10-11T07:07:48.422Z,63.85
2022-10-11T07:08:20.526Z,81.15
2022-10-11T07:08:55.905Z,38.63
2022-10-11T07:09:28.336Z,53.25
2022-10-11T07:10:00.450Z,46.85
2022-10-11T07:10:35.098Z,28.52
2022-10-11T07:11:09.443Z,50.88
2022-10-11T07:11:44.121Z,42.45
2022-10-11T07:12:16.540Z,41.28
2022-10-11T07:12:48.718Z,56.55
2022-10-11T07:13:24.573Z,53.20
2022-10-11T07:13:58.554Z,25.25
2022-10-11T07:14:33.395Z,50.45
2022-10-11T07:15:06.387Z,33.45
2022-10-11T07:15:41.331Z,68.95
2022-10-11T07:16:13.428Z,61.75
2022-10-11T07:16:45.592Z,51.80
2022-10-11T07:17:20.908Z,72.40
2022-10-11T07:17:52.991Z,24.88
2022-10-11T07:18:25.141Z,51.08
2022-10-11T07:19:03.179Z,56.35
2022-10-11T07:19:35.495Z,80.45
2022-10-11T07:20:08.841Z,45.47
2022-10-11T07:20:46.655Z,44.28
2022-10-11T07:21:18.770Z,44.45
2022-10-11T07:21:50.865Z,33.65
2022-10-11T07:22:25.568Z,43.58
2022-10-11T07:22:58.021Z,69.75
2022-10-11T07:23:30.387Z,62.25
2022-10-11T07:24:05.444Z,46.05
2022-10-11T07:24:37.575Z,54.33
2022-10-11T07:25:10.127Z,46.60
2022-10-11T07:25:45.004Z,40.45
2022-10-11T07:26:17.217Z,62.05
2022-10-11T07:26:51.913Z,49.28
2022-10-11T07:27:24.137Z,51.03
2022-10-11T07:27:56.261Z,39.88
2022-10-11T07:28:31.635Z,69.82
2022-10-11T07:29:04.016Z,21.38
2022-10-11T07:29:38.767Z,32.60
2022-10-11T07:30:11.883Z,39.83
2022-10-11T07:30:44.264Z,33.25
2022-10-11T07:31:21.797Z,50.65
2022-10-11T07:31:53.894Z,35.75
2022-10-11T07:32:26.042Z,38.80
2022-10-11T07:33:00.705Z,32.45
2022-10-11T07:33:32.977Z,56.75